sensor_id;sensor_type;location;lat;lon;timestamp;P1;durP1;ratioP1;P2;durP2;ratioP2
55025;SDS011;40925;45.666;18.994;2023-11-18T00:01:31;8.82;;;5.40;;
55025;SDS011;40925;45.666;18.994;2023-11-18T00:03:58;7.68;;;4.35;;
55025;SDS011;40925;45.666;18.994;2023-11-18T00:06:24;12.02;;;5.03;;
55025;SDS011;40925;45.666;18.994;2023-11-18T00:08:50;6.03;;;4.00;;
55025;SDS011;40925;45.666;18.994;2023-11-18T00:11:16;5.30;;;3.38;;
55025;SDS011;40925;45.666;18.994;2023-11-18T00:13:43;4.97;;;3.28;;
55025;SDS011;40925;45.666;18.994;2023-11-18T00:16:10;5.90;;;3.47;;
55025;SDS011;40925;45.666;18.994;2023-11-18T00:18:40;4.63;;;2.97;;
55025;SDS011;40925;45.666;18.994;2023-11-18T00:21:06;4.90;;;3.28;;
55025;SDS011;40925;45.666;18.994;2023-11-18T00:23:32;5.43;;;3.75;;
55025;SDS011;40925;45.666;18.994;2023-11-18T00:25:59;5.72;;;3.15;;
55025;SDS011;40925;45.666;18.994;2023-11-18T00:28:24;4.88;;;2.95;;
55025;SDS011;40925;45.666;18.994;2023-11-18T00:30:50;5.07;;;3.35;;
55025;SDS011;40925;45.666;18.994;2023-11-18T00:33:19;5.40;;;3.72;;
55025;SDS011;40925;45.666;18.994;2023-11-18T00:35:44;5.20;;;3.50;;
55025;SDS011;40925;45.666;18.994;2023-11-18T00:38:11;5.45;;;3.40;;
55025;SDS011;40925;45.666;18.994;2023-11-18T00:40:37;5.10;;;3.58;;
55025;SDS011;40925;45.666;18.994;2023-11-18T00:43:06;4.72;;;3.20;;
55025;SDS011;40925;45.666;18.994;2023-11-18T00:45:33;7.07;;;3.25;;
55025;SDS011;40925;45.666;18.994;2023-11-18T00:47:58;5.20;;;2.88;;
55025;SDS011;40925;45.666;18.994;2023-11-18T00:50:30;4.88;;;3.33;;
55025;SDS011;40925;45.666;18.994;2023-11-18T00:52:56;5.35;;;3.47;;
55025;SDS011;40925;45.666;18.994;2023-11-18T00:55:22;4.38;;;3.30;;
55025;SDS011;40925;45.666;18.994;2023-11-18T00:57:48;4.82;;;3.10;;
55025;SDS011;40925;45.666;18.994;2023-11-18T01:00:14;6.57;;;3.80;;
55025;SDS011;40925;45.666;18.994;2023-11-18T01:02:43;4.70;;;3.22;;
55025;SDS011;40925;45.666;18.994;2023-11-18T01:05:11;5.38;;;3.33;;
55025;SDS011;40925;45.666;18.994;2023-11-18T01:07:39;4.47;;;3.03;;
55025;SDS011;40925;45.666;18.994;2023-11-18T01:10:08;4.50;;;3.03;;
55025;SDS011;40925;45.666;18.994;2023-11-18T01:12:35;4.63;;;3.17;;
55025;SDS011;40925;45.666;18.994;2023-11-18T01:15:01;6.35;;;3.10;;
55025;SDS011;40925;45.666;18.994;2023-11-18T01:17:28;6.25;;;3.03;;
55025;SDS011;40925;45.666;18.994;2023-11-18T01:19:54;4.57;;;3.03;;
55025;SDS011;40925;45.666;18.994;2023-11-18T01:22:20;4.03;;;3.13;;
55025;SDS011;40925;45.666;18.994;2023-11-18T01:24:49;4.53;;;3.17;;
55025;SDS011;40925;45.666;18.994;2023-11-18T01:27:18;6.88;;;2.90;;
55025;SDS011;40925;45.666;18.994;2023-11-18T01:29:46;3.88;;;2.60;;
55025;SDS011;40925;45.666;18.994;2023-11-18T01:32:12;4.38;;;2.72;;
55025;SDS011;40925;45.666;18.994;2023-11-18T01:34:39;4.15;;;2.70;;
55025;SDS011;40925;45.666;18.994;2023-11-18T01:37:08;4.22;;;2.58;;
55025;SDS011;40925;45.666;18.994;2023-11-18T01:39:34;3.90;;;2.28;;
55025;SDS011;40925;45.666;18.994;2023-11-18T01:42:01;6.07;;;2.95;;
55025;SDS011;40925;45.666;18.994;2023-11-18T01:44:29;4.03;;;2.60;;
55025;SDS011;40925;45.666;18.994;2023-11-18T01:46:56;3.78;;;2.58;;
55025;SDS011;40925;45.666;18.994;2023-11-18T01:49:26;3.95;;;2.90;;
55025;SDS011;40925;45.666;18.994;2023-11-18T01:51:52;3.15;;;2.30;;
55025;SDS011;40925;45.666;18.994;2023-11-18T01:54:18;3.75;;;2.53;;
55025;SDS011;40925;45.666;18.994;2023-11-18T01:56:49;4.03;;;2.50;;
55025;SDS011;40925;45.666;18.994;2023-11-18T01:59:16;3.30;;;2.40;;
55025;SDS011;40925;45.666;18.994;2023-11-18T02:01:48;3.42;;;2.40;;
55025;SDS011;40925;45.666;18.994;2023-11-18T02:04:16;3.47;;;2.40;;
55025;SDS011;40925;45.666;18.994;2023-11-18T02:06:45;3.53;;;2.20;;
55025;SDS011;40925;45.666;18.994;2023-11-18T02:09:13;3.67;;;2.10;;
55025;SDS011;40925;45.666;18.994;2023-11-18T02:14:46;2.80;;;2.10;;
55025;SDS011;40925;45.666;18.994;2023-11-18T02:17:14;3.58;;;2.63;;
55025;SDS011;40925;45.666;18.994;2023-11-18T02:19:45;3.22;;;2.30;;
55025;SDS011;40925;45.666;18.994;2023-11-18T02:22:11;3.80;;;2.47;;
55025;SDS011;40925;45.666;18.994;2023-11-18T02:24:37;4.22;;;2.40;;
55025;SDS011;40925;45.666;18.994;2023-11-18T02:27:05;3.78;;;2.55;;
55025;SDS011;40925;45.666;18.994;2023-11-18T02:29:34;3.95;;;2.60;;
55025;SDS011;40925;45.666;18.994;2023-11-18T02:38:03;3.72;;;2.60;;
55025;SDS011;40925;45.666;18.994;2023-11-18T02:40:39;4.72;;;2.83;;
55025;SDS011;40925;45.666;18.994;2023-11-18T02:43:08;3.33;;;2.33;;
55025;SDS011;40925;45.666;18.994;2023-11-18T02:45:35;3.95;;;2.60;;
55025;SDS011;40925;45.666;18.994;2023-11-18T02:48:02;3.83;;;2.55;;
55025;SDS011;40925;45.666;18.994;2023-11-18T02:50:29;4.35;;;2.30;;
55025;SDS011;40925;45.666;18.994;2023-11-18T02:52:55;3.65;;;2.60;;
55025;SDS011;40925;45.666;18.994;2023-11-18T02:55:21;3.47;;;2.45;;
55025;SDS011;40925;45.666;18.994;2023-11-18T02:57:48;3.65;;;2.50;;
55025;SDS011;40925;45.666;18.994;2023-11-18T03:00:14;3.25;;;2.42;;
55025;SDS011;40925;45.666;18.994;2023-11-18T03:02:49;3.55;;;2.47;;
55025;SDS011;40925;45.666;18.994;2023-11-18T03:05:17;6.35;;;2.60;;
55025;SDS011;40925;45.666;18.994;2023-11-18T03:07:43;3.92;;;2.50;;
55025;SDS011;40925;45.666;18.994;2023-11-18T03:10:12;5.32;;;2.50;;
55025;SDS011;40925;45.666;18.994;2023-11-18T03:12:46;4.28;;;2.92;;
55025;SDS011;40925;45.666;18.994;2023-11-18T03:15:12;3.75;;;2.50;;
55025;SDS011;40925;45.666;18.994;2023-11-18T03:17:38;5.35;;;2.90;;
55025;SDS011;40925;45.666;18.994;2023-11-18T03:20:04;3.90;;;2.63;;
55025;SDS011;40925;45.666;18.994;2023-11-18T03:22:37;4.72;;;2.97;;
55025;SDS011;40925;45.666;18.994;2023-11-18T03:25:02;4.55;;;2.80;;
55025;SDS011;40925;45.666;18.994;2023-11-18T03:27:30;3.72;;;2.47;;
55025;SDS011;40925;45.666;18.994;2023-11-18T03:29:56;4.05;;;2.50;;
55025;SDS011;40925;45.666;18.994;2023-11-18T03:32:21;4.63;;;3.00;;
55025;SDS011;40925;45.666;18.994;2023-11-18T03:34:48;3.50;;;2.58;;
55025;SDS011;40925;45.666;18.994;2023-11-18T03:37:13;3.58;;;2.38;;
55025;SDS011;40925;45.666;18.994;2023-11-18T03:39:39;3.85;;;2.50;;
55025;SDS011;40925;45.666;18.994;2023-11-18T03:42:05;4.20;;;2.42;;
55025;SDS011;40925;45.666;18.994;2023-11-18T03:44:34;3.75;;;2.50;;
55025;SDS011;40925;45.666;18.994;2023-11-18T03:46:59;3.22;;;2.25;;
55025;SDS011;40925;45.666;18.994;2023-11-18T03:49:28;4.55;;;2.38;;
55025;SDS011;40925;45.666;18.994;2023-11-18T03:51:53;4.05;;;2.50;;
55025;SDS011;40925;45.666;18.994;2023-11-18T03:54:19;4.10;;;2.30;;
55025;SDS011;40925;45.666;18.994;2023-11-18T03:56:45;4.18;;;2.40;;
55025;SDS011;40925;45.666;18.994;2023-11-18T03:59:11;4.03;;;2.50;;
55025;SDS011;40925;45.666;18.994;2023-11-18T04:01:37;3.58;;;2.33;;
55025;SDS011;40925;45.666;18.994;2023-11-18T04:04:02;2.97;;;2.22;;
55025;SDS011;40925;45.666;18.994;2023-11-18T04:06:29;3.75;;;2.55;;
55025;SDS011;40925;45.666;18.994;2023-11-18T04:08:54;2.92;;;2.17;;
55025;SDS011;40925;45.666;18.994;2023-11-18T04:11:20;3.70;;;2.25;;
55025;SDS011;40925;45.666;18.994;2023-11-18T04:13:46;4.40;;;2.25;;
55025;SDS011;40925;45.666;18.994;2023-11-18T04:16:13;3.10;;;2.30;;
55025;SDS011;40925;45.666;18.994;2023-11-18T04:18:40;3.40;;;2.50;;
55025;SDS011;40925;45.666;18.994;2023-11-18T04:21:09;4.10;;;2.15;;
55025;SDS011;40925;45.666;18.994;2023-11-18T04:23:36;3.78;;;2.42;;
55025;SDS011;40925;45.666;18.994;2023-11-18T04:26:05;4.07;;;2.60;;
55025;SDS011;40925;45.666;18.994;2023-11-18T04:28:33;3.50;;;2.47;;
55025;SDS011;40925;45.666;18.994;2023-11-18T04:30:59;3.90;;;2.67;;
55025;SDS011;40925;45.666;18.994;2023-11-18T04:33:25;4.13;;;2.60;;
55025;SDS011;40925;45.666;18.994;2023-11-18T04:35:51;4.70;;;2.92;;
55025;SDS011;40925;45.666;18.994;2023-11-18T04:38:17;3.50;;;2.63;;
55025;SDS011;40925;45.666;18.994;2023-11-18T04:40:44;4.32;;;2.50;;
55025;SDS011;40925;45.666;18.994;2023-11-18T04:43:12;3.90;;;2.70;;
55025;SDS011;40925;45.666;18.994;2023-11-18T04:45:38;5.28;;;2.83;;
55025;SDS011;40925;45.666;18.994;2023-11-18T04:48:07;3.65;;;2.50;;
55025;SDS011;40925;45.666;18.994;2023-11-18T04:50:33;3.45;;;2.58;;
55025;SDS011;40925;45.666;18.994;2023-11-18T04:52:59;3.70;;;2.63;;
55025;SDS011;40925;45.666;18.994;2023-11-18T04:55:25;5.00;;;2.95;;
55025;SDS011;40925;45.666;18.994;2023-11-18T04:57:51;4.20;;;2.90;;
55025;SDS011;40925;45.666;18.994;2023-11-18T05:00:17;5.35;;;3.17;;
55025;SDS011;40925;45.666;18.994;2023-11-18T05:02:44;5.03;;;3.30;;
55025;SDS011;40925;45.666;18.994;2023-11-18T05:05:14;6.57;;;2.90;;
55025;SDS011;40925;45.666;18.994;2023-11-18T05:07:43;4.47;;;2.72;;
55025;SDS011;40925;45.666;18.994;2023-11-18T05:10:10;4.82;;;3.03;;
55025;SDS011;40925;45.666;18.994;2023-11-18T05:12:39;5.82;;;2.90;;
55025;SDS011;40925;45.666;18.994;2023-11-18T05:15:09;4.32;;;3.03;;
55025;SDS011;40925;45.666;18.994;2023-11-18T05:17:35;4.30;;;2.67;;
55025;SDS011;40925;45.666;18.994;2023-11-18T05:20:05;5.40;;;3.15;;
55025;SDS011;40925;45.666;18.994;2023-11-18T05:22:36;4.25;;;2.95;;
55025;SDS011;40925;45.666;18.994;2023-11-18T05:25:02;4.35;;;2.70;;
55025;SDS011;40925;45.666;18.994;2023-11-18T05:27:33;4.60;;;3.40;;
55025;SDS011;40925;45.666;18.994;2023-11-18T05:29:59;4.38;;;3.03;;
55025;SDS011;40925;45.666;18.994;2023-11-18T05:32:28;4.30;;;3.10;;
55025;SDS011;40925;45.666;18.994;2023-11-18T05:34:55;4.63;;;2.97;;
55025;SDS011;40925;45.666;18.994;2023-11-18T05:37:23;5.18;;;2.92;;
55025;SDS011;40925;45.666;18.994;2023-11-18T05:39:49;4.85;;;3.10;;
55025;SDS011;40925;45.666;18.994;2023-11-18T05:42:23;4.13;;;3.03;;
55025;SDS011;40925;45.666;18.994;2023-11-18T05:44:50;6.13;;;3.60;;
55025;SDS011;40925;45.666;18.994;2023-11-18T05:47:27;7.30;;;4.80;;
55025;SDS011;40925;45.666;18.994;2023-11-18T05:49:54;8.15;;;4.22;;
55025;SDS011;40925;45.666;18.994;2023-11-18T05:52:20;8.35;;;4.70;;
55025;SDS011;40925;45.666;18.994;2023-11-18T05:54:47;7.53;;;4.55;;
55025;SDS011;40925;45.666;18.994;2023-11-18T05:57:16;6.68;;;4.25;;
55025;SDS011;40925;45.666;18.994;2023-11-18T05:59:43;6.57;;;3.85;;
55025;SDS011;40925;45.666;18.994;2023-11-18T06:02:09;6.32;;;3.33;;
55025;SDS011;40925;45.666;18.994;2023-11-18T06:04:43;5.28;;;3.00;;
55025;SDS011;40925;45.666;18.994;2023-11-18T06:07:09;4.70;;;2.95;;
55025;SDS011;40925;45.666;18.994;2023-11-18T06:09:38;4.18;;;2.45;;
55025;SDS011;40925;45.666;18.994;2023-11-18T06:12:07;5.13;;;2.92;;
55025;SDS011;40925;45.666;18.994;2023-11-18T06:14:35;4.75;;;2.80;;
55025;SDS011;40925;45.666;18.994;2023-11-18T06:17:04;3.92;;;2.83;;
55025;SDS011;40925;45.666;18.994;2023-11-18T06:19:33;5.60;;;3.17;;
55025;SDS011;40925;45.666;18.994;2023-11-18T06:21:59;4.70;;;2.70;;
55025;SDS011;40925;45.666;18.994;2023-11-18T06:24:25;5.43;;;3.30;;
55025;SDS011;40925;45.666;18.994;2023-11-18T06:26:51;5.22;;;2.80;;
55025;SDS011;40925;45.666;18.994;2023-11-18T06:29:20;3.58;;;2.70;;
55025;SDS011;40925;45.666;18.994;2023-11-18T06:31:45;4.20;;;2.80;;
55025;SDS011;40925;45.666;18.994;2023-11-18T06:34:12;4.38;;;3.10;;
55025;SDS011;40925;45.666;18.994;2023-11-18T06:36:38;4.18;;;2.97;;
55025;SDS011;40925;45.666;18.994;2023-11-18T06:39:03;3.55;;;2.85;;
55025;SDS011;40925;45.666;18.994;2023-11-18T06:41:31;4.05;;;2.90;;
55025;SDS011;40925;45.666;18.994;2023-11-18T06:44:02;3.92;;;3.00;;
55025;SDS011;40925;45.666;18.994;2023-11-18T06:46:34;4.05;;;2.70;;
55025;SDS011;40925;45.666;18.994;2023-11-18T06:49:02;6.32;;;4.15;;
55025;SDS011;40925;45.666;18.994;2023-11-18T06:51:29;4.57;;;3.20;;
55025;SDS011;40925;45.666;18.994;2023-11-18T06:53:57;5.00;;;2.90;;
55025;SDS011;40925;45.666;18.994;2023-11-18T06:56:24;6.60;;;4.22;;
55025;SDS011;40925;45.666;18.994;2023-11-18T06:58:50;8.60;;;5.03;;
55025;SDS011;40925;45.666;18.994;2023-11-18T07:01:16;5.80;;;4.13;;
55025;SDS011;40925;45.666;18.994;2023-11-18T07:03:49;3.83;;;2.58;;
55025;SDS011;40925;45.666;18.994;2023-11-18T07:06:18;3.83;;;2.40;;
55025;SDS011;40925;45.666;18.994;2023-11-18T07:08:49;3.65;;;2.85;;
55025;SDS011;40925;45.666;18.994;2023-11-18T07:11:18;3.15;;;2.60;;
55025;SDS011;40925;45.666;18.994;2023-11-18T07:13:48;4.15;;;2.70;;
55025;SDS011;40925;45.666;18.994;2023-11-18T07:16:17;4.65;;;3.10;;
55025;SDS011;40925;45.666;18.994;2023-11-18T07:18:44;4.65;;;3.67;;
55025;SDS011;40925;45.666;18.994;2023-11-18T07:21:10;4.22;;;3.50;;
55025;SDS011;40925;45.666;18.994;2023-11-18T07:23:36;4.25;;;3.20;;
55025;SDS011;40925;45.666;18.994;2023-11-18T07:26:02;4.60;;;3.20;;
55025;SDS011;40925;45.666;18.994;2023-11-18T07:28:31;5.28;;;3.47;;
55025;SDS011;40925;45.666;18.994;2023-11-18T07:30:57;5.68;;;3.72;;
55025;SDS011;40925;45.666;18.994;2023-11-18T07:33:25;5.20;;;3.95;;
55025;SDS011;40925;45.666;18.994;2023-11-18T07:35:51;8.25;;;4.50;;
55025;SDS011;40925;45.666;18.994;2023-11-18T07:38:17;4.30;;;3.00;;
55025;SDS011;40925;45.666;18.994;2023-11-18T07:40:45;4.43;;;3.20;;
55025;SDS011;40925;45.666;18.994;2023-11-18T07:43:11;3.70;;;2.92;;
55025;SDS011;40925;45.666;18.994;2023-11-18T07:45:37;3.83;;;2.67;;
55025;SDS011;40925;45.666;18.994;2023-11-18T07:50:34;4.30;;;2.60;;
55025;SDS011;40925;45.666;18.994;2023-11-18T07:53:09;4.72;;;2.80;;
55025;SDS011;40925;45.666;18.994;2023-11-18T07:55:35;8.07;;;4.10;;
55025;SDS011;40925;45.666;18.994;2023-11-18T07:58:04;9.75;;;5.25;;
55025;SDS011;40925;45.666;18.994;2023-11-18T08:00:35;4.82;;;3.03;;
55025;SDS011;40925;45.666;18.994;2023-11-18T08:03:04;4.53;;;2.80;;
55025;SDS011;40925;45.666;18.994;2023-11-18T08:05:37;3.75;;;2.60;;
55025;SDS011;40925;45.666;18.994;2023-11-18T08:08:04;6.15;;;2.90;;
55025;SDS011;40925;45.666;18.994;2023-11-18T08:10:30;3.78;;;2.53;;
55025;SDS011;40925;45.666;18.994;2023-11-18T08:12:58;3.67;;;2.25;;
55025;SDS011;40925;45.666;18.994;2023-11-18T08:15:23;3.13;;;2.00;;
55025;SDS011;40925;45.666;18.994;2023-11-18T08:17:52;3.58;;;2.50;;
55025;SDS011;40925;45.666;18.994;2023-11-18T08:20:18;4.07;;;2.40;;
55025;SDS011;40925;45.666;18.994;2023-11-18T08:22:48;3.90;;;2.90;;
55025;SDS011;40925;45.666;18.994;2023-11-18T08:25:14;6.50;;;2.70;;
55025;SDS011;40925;45.666;18.994;2023-11-18T08:27:40;6.25;;;2.17;;
55025;SDS011;40925;45.666;18.994;2023-11-18T08:30:09;2.50;;;1.90;;
55025;SDS011;40925;45.666;18.994;2023-11-18T08:32:42;5.47;;;3.00;;
55025;SDS011;40925;45.666;18.994;2023-11-18T08:35:09;7.78;;;4.57;;
55025;SDS011;40925;45.666;18.994;2023-11-18T08:37:38;7.00;;;3.22;;
55025;SDS011;40925;45.666;18.994;2023-11-18T08:40:05;3.63;;;2.30;;
55025;SDS011;40925;45.666;18.994;2023-11-18T08:42:32;5.88;;;3.20;;
55025;SDS011;40925;45.666;18.994;2023-11-18T08:44:59;4.47;;;2.70;;
55025;SDS011;40925;45.666;18.994;2023-11-18T08:47:26;4.40;;;2.20;;
55025;SDS011;40925;45.666;18.994;2023-11-18T08:49:52;4.68;;;2.33;;
55025;SDS011;40925;45.666;18.994;2023-11-18T08:52:18;8.45;;;3.28;;
55025;SDS011;40925;45.666;18.994;2023-11-18T08:54:44;3.97;;;2.42;;
55025;SDS011;40925;45.666;18.994;2023-11-18T08:57:41;3.00;;;2.03;;
55025;SDS011;40925;45.666;18.994;2023-11-18T09:00:27;3.50;;;2.50;;
55025;SDS011;40925;45.666;18.994;2023-11-18T09:03:14;6.38;;;3.50;;
55025;SDS011;40925;45.666;18.994;2023-11-18T09:05:49;6.93;;;4.00;;
55025;SDS011;40925;45.666;18.994;2023-11-18T09:08:25;3.45;;;2.03;;
55025;SDS011;40925;45.666;18.994;2023-11-18T09:10:57;3.22;;;2.00;;
55025;SDS011;40925;45.666;18.994;2023-11-18T09:13:23;4.47;;;2.92;;
55025;SDS011;40925;45.666;18.994;2023-11-18T09:15:54;5.50;;;3.40;;
55025;SDS011;40925;45.666;18.994;2023-11-18T09:18:22;9.77;;;4.95;;
55025;SDS011;40925;45.666;18.994;2023-11-18T09:20:49;6.50;;;3.83;;
55025;SDS011;40925;45.666;18.994;2023-11-18T09:23:17;5.60;;;3.55;;
55025;SDS011;40925;45.666;18.994;2023-11-18T09:25:45;4.95;;;3.10;;
55025;SDS011;40925;45.666;18.994;2023-11-18T09:28:15;6.85;;;3.55;;
55025;SDS011;40925;45.666;18.994;2023-11-18T09:30:45;7.07;;;4.30;;
55025;SDS011;40925;45.666;18.994;2023-11-18T09:33:23;5.13;;;3.17;;
55025;SDS011;40925;45.666;18.994;2023-11-18T09:35:51;3.28;;;2.28;;
55025;SDS011;40925;45.666;18.994;2023-11-18T09:38:21;3.85;;;2.50;;
55025;SDS011;40925;45.666;18.994;2023-11-18T09:40:47;4.97;;;2.67;;
55025;SDS011;40925;45.666;18.994;2023-11-18T09:43:17;4.20;;;2.55;;
55025;SDS011;40925;45.666;18.994;2023-11-18T09:45:44;3.10;;;2.10;;
55025;SDS011;40925;45.666;18.994;2023-11-18T09:48:13;3.53;;;2.00;;
55025;SDS011;40925;45.666;18.994;2023-11-18T09:50:45;4.78;;;1.83;;
55025;SDS011;40925;45.666;18.994;2023-11-18T09:53:15;3.60;;;2.10;;
55025;SDS011;40925;45.666;18.994;2023-11-18T09:55:49;3.80;;;2.30;;
55025;SDS011;40925;45.666;18.994;2023-11-18T09:58:25;5.88;;;3.10;;
55025;SDS011;40925;45.666;18.994;2023-11-18T10:00:58;4.07;;;2.40;;
55025;SDS011;40925;45.666;18.994;2023-11-18T10:03:27;6.07;;;3.10;;
55025;SDS011;40925;45.666;18.994;2023-11-18T10:05:54;4.95;;;2.13;;
55025;SDS011;40925;45.666;18.994;2023-11-18T10:08:22;3.92;;;2.40;;
55025;SDS011;40925;45.666;18.994;2023-11-18T10:10:51;5.45;;;3.00;;
55025;SDS011;40925;45.666;18.994;2023-11-18T10:13:31;4.55;;;2.67;;
55025;SDS011;40925;45.666;18.994;2023-11-18T10:15:59;5.22;;;3.00;;
55025;SDS011;40925;45.666;18.994;2023-11-18T10:18:30;4.40;;;2.40;;
55025;SDS011;40925;45.666;18.994;2023-11-18T10:21:00;5.60;;;3.63;;
55025;SDS011;40925;45.666;18.994;2023-11-18T10:23:26;7.30;;;3.97;;
55025;SDS011;40925;45.666;18.994;2023-11-18T10:25:59;9.93;;;4.30;;
55025;SDS011;40925;45.666;18.994;2023-11-18T10:28:33;5.03;;;2.55;;
55025;SDS011;40925;45.666;18.994;2023-11-18T10:31:08;8.95;;;4.05;;
55025;SDS011;40925;45.666;18.994;2023-11-18T10:33:40;9.05;;;4.05;;
55025;SDS011;40925;45.666;18.994;2023-11-18T10:36:19;6.22;;;3.15;;
55025;SDS011;40925;45.666;18.994;2023-11-18T10:38:50;5.18;;;2.78;;
55025;SDS011;40925;45.666;18.994;2023-11-18T10:41:21;7.75;;;3.47;;
55025;SDS011;40925;45.666;18.994;2023-11-18T10:43:48;8.68;;;4.00;;
55025;SDS011;40925;45.666;18.994;2023-11-18T10:46:14;6.47;;;2.85;;
55025;SDS011;40925;45.666;18.994;2023-11-18T10:51:18;5.68;;;3.20;;
55025;SDS011;40925;45.666;18.994;2023-11-18T10:53:51;5.15;;;2.67;;
55025;SDS011;40925;45.666;18.994;2023-11-18T10:56:22;4.68;;;2.90;;
55025;SDS011;40925;45.666;18.994;2023-11-18T10:59:06;6.55;;;3.22;;
55025;SDS011;40925;45.666;18.994;2023-11-18T11:01:32;4.20;;;2.05;;
55025;SDS011;40925;45.666;18.994;2023-11-18T11:04:04;4.28;;;2.05;;
55025;SDS011;40925;45.666;18.994;2023-11-18T11:06:31;4.30;;;2.63;;
55025;SDS011;40925;45.666;18.994;2023-11-18T11:08:58;6.18;;;2.72;;
55025;SDS011;40925;45.666;18.994;2023-11-18T11:11:25;3.85;;;1.90;;
55025;SDS011;40925;45.666;18.994;2023-11-18T11:13:57;6.32;;;3.40;;
55025;SDS011;40925;45.666;18.994;2023-11-18T11:16:31;6.15;;;3.20;;
55025;SDS011;40925;45.666;18.994;2023-11-18T11:19:08;5.70;;;2.95;;
55025;SDS011;40925;45.666;18.994;2023-11-18T11:21:50;8.23;;;2.95;;
55025;SDS011;40925;45.666;18.994;2023-11-18T11:24:27;10.13;;;5.25;;
55025;SDS011;40925;45.666;18.994;2023-11-18T11:27:25;9.15;;;4.35;;
55025;SDS011;40925;45.666;18.994;2023-11-18T11:30:07;6.15;;;3.00;;
55025;SDS011;40925;45.666;18.994;2023-11-18T11:32:44;8.23;;;2.60;;
55025;SDS011;40925;45.666;18.994;2023-11-18T11:35:27;10.90;;;5.10;;
55025;SDS011;40925;45.666;18.994;2023-11-18T11:37:59;5.97;;;3.40;;
55025;SDS011;40925;45.666;18.994;2023-11-18T11:40:32;5.32;;;3.00;;
55025;SDS011;40925;45.666;18.994;2023-11-18T11:43:02;5.80;;;2.75;;
55025;SDS011;40925;45.666;18.994;2023-11-18T11:45:37;8.60;;;4.68;;
55025;SDS011;40925;45.666;18.994;2023-11-18T11:48:04;5.68;;;3.00;;
55025;SDS011;40925;45.666;18.994;2023-11-18T11:56:43;6.85;;;3.78;;
55025;SDS011;40925;45.666;18.994;2023-11-18T11:59:17;4.88;;;3.10;;
55025;SDS011;40925;45.666;18.994;2023-11-18T12:02:02;10.65;;;6.05;;
55025;SDS011;40925;45.666;18.994;2023-11-18T12:04:33;6.78;;;3.75;;
55025;SDS011;40925;45.666;18.994;2023-11-18T12:07:02;12.80;;;5.72;;
55025;SDS011;40925;45.666;18.994;2023-11-18T12:09:37;8.20;;;3.90;;
55025;SDS011;40925;45.666;18.994;2023-11-18T12:12:04;4.63;;;2.30;;
55025;SDS011;40925;45.666;18.994;2023-11-18T12:14:48;5.88;;;2.75;;
55025;SDS011;40925;45.666;18.994;2023-11-18T12:18:18;3.97;;;1.73;;
55025;SDS011;40925;45.666;18.994;2023-11-18T12:20:41;3.80;;;1.90;;
55025;SDS011;40925;45.666;18.994;2023-11-18T12:23:12;5.13;;;2.45;;
55025;SDS011;40925;45.666;18.994;2023-11-18T12:25:46;4.78;;;2.20;;
55025;SDS011;40925;45.666;18.994;2023-11-18T12:28:40;5.75;;;2.17;;
55025;SDS011;40925;45.666;18.994;2023-11-18T12:31:11;4.43;;;2.58;;
55025;SDS011;40925;45.666;18.994;2023-11-18T12:41:55;6.78;;;2.78;;
55025;SDS011;40925;45.666;18.994;2023-11-18T12:44:36;11.98;;;5.20;;
55025;SDS011;40925;45.666;18.994;2023-11-18T12:47:07;6.38;;;3.03;;
55025;SDS011;40925;45.666;18.994;2023-11-18T12:49:42;7.22;;;3.72;;
55025;SDS011;40925;45.666;18.994;2023-11-18T12:52:12;5.57;;;3.05;;
55025;SDS011;40925;45.666;18.994;2023-11-18T12:54:40;8.13;;;4.20;;
55025;SDS011;40925;45.666;18.994;2023-11-18T12:57:08;7.65;;;4.43;;
55025;SDS011;40925;45.666;18.994;2023-11-18T12:59:40;11.50;;;5.18;;
55025;SDS011;40925;45.666;18.994;2023-11-18T13:02:09;7.00;;;3.60;;
55025;SDS011;40925;45.666;18.994;2023-11-18T13:04:47;6.22;;;3.05;;
55025;SDS011;40925;45.666;18.994;2023-11-18T13:07:17;4.65;;;2.70;;
55025;SDS011;40925;45.666;18.994;2023-11-18T13:09:43;6.70;;;3.05;;
55025;SDS011;40925;45.666;18.994;2023-11-18T13:12:11;5.63;;;2.75;;
55025;SDS011;40925;45.666;18.994;2023-11-18T13:14:41;4.82;;;2.58;;
55025;SDS011;40925;45.666;18.994;2023-11-18T13:17:11;4.88;;;2.40;;
55025;SDS011;40925;45.666;18.994;2023-11-18T13:19:37;7.78;;;4.10;;
55025;SDS011;40925;45.666;18.994;2023-11-18T13:22:07;7.53;;;3.95;;
55025;SDS011;40925;45.666;18.994;2023-11-18T13:24:34;7.28;;;3.83;;
55025;SDS011;40925;45.666;18.994;2023-11-18T13:27:01;6.75;;;3.15;;
55025;SDS011;40925;45.666;18.994;2023-11-18T13:29:28;8.13;;;3.38;;
55025;SDS011;40925;45.666;18.994;2023-11-18T13:31:55;6.53;;;3.30;;
55025;SDS011;40925;45.666;18.994;2023-11-18T13:34:22;7.97;;;3.25;;
55025;SDS011;40925;45.666;18.994;2023-11-18T13:36:49;6.13;;;2.90;;
55025;SDS011;40925;45.666;18.994;2023-11-18T13:39:19;5.30;;;2.38;;
55025;SDS011;40925;45.666;18.994;2023-11-18T13:41:48;8.05;;;3.63;;
55025;SDS011;40925;45.666;18.994;2023-11-18T13:44:36;10.93;;;5.28;;
55025;SDS011;40925;45.666;18.994;2023-11-18T13:47:04;9.02;;;4.45;;
55025;SDS011;40925;45.666;18.994;2023-11-18T13:49:36;6.13;;;2.95;;
55025;SDS011;40925;45.666;18.994;2023-11-18T13:52:05;7.78;;;3.95;;
55025;SDS011;40925;45.666;18.994;2023-11-18T13:54:40;12.48;;;5.10;;
55025;SDS011;40925;45.666;18.994;2023-11-18T13:57:09;6.43;;;3.35;;
55025;SDS011;40925;45.666;18.994;2023-11-18T13:59:37;4.95;;;2.47;;
55025;SDS011;40925;45.666;18.994;2023-11-18T14:02:09;5.20;;;3.10;;
55025;SDS011;40925;45.666;18.994;2023-11-18T14:04:36;4.43;;;1.92;;
55025;SDS011;40925;45.666;18.994;2023-11-18T14:07:03;4.13;;;2.15;;
55025;SDS011;40925;45.666;18.994;2023-11-18T14:09:34;5.78;;;3.08;;
55025;SDS011;40925;45.666;18.994;2023-11-18T14:12:09;4.30;;;2.22;;
55025;SDS011;40925;45.666;18.994;2023-11-18T14:14:36;5.63;;;3.28;;
55025;SDS011;40925;45.666;18.994;2023-11-18T14:17:06;9.73;;;4.25;;
55025;SDS011;40925;45.666;18.994;2023-11-18T14:19:32;8.23;;;4.75;;
55025;SDS011;40925;45.666;18.994;2023-11-18T14:22:00;10.57;;;5.03;;
55025;SDS011;40925;45.666;18.994;2023-11-18T14:24:29;19.88;;;8.25;;
55025;SDS011;40925;45.666;18.994;2023-11-18T14:26:57;21.02;;;7.95;;
55025;SDS011;40925;45.666;18.994;2023-11-18T14:29:23;26.05;;;9.85;;
55025;SDS011;40925;45.666;18.994;2023-11-18T14:31:49;16.10;;;7.90;;
55025;SDS011;40925;45.666;18.994;2023-11-18T14:34:17;17.13;;;8.48;;
55025;SDS011;40925;45.666;18.994;2023-11-18T14:36:43;18.65;;;8.05;;
55025;SDS011;40925;45.666;18.994;2023-11-18T14:39:13;13.07;;;7.13;;
55025;SDS011;40925;45.666;18.994;2023-11-18T14:41:39;11.75;;;5.57;;
55025;SDS011;40925;45.666;18.994;2023-11-18T14:44:05;11.27;;;5.82;;
55025;SDS011;40925;45.666;18.994;2023-11-18T14:46:34;11.70;;;5.90;;
55025;SDS011;40925;45.666;18.994;2023-11-18T14:49:00;16.77;;;6.97;;
55025;SDS011;40925;45.666;18.994;2023-11-18T14:51:26;10.52;;;5.05;;
55025;SDS011;40925;45.666;18.994;2023-11-18T14:53:52;7.25;;;3.50;;
55025;SDS011;40925;45.666;18.994;2023-11-18T14:56:21;12.77;;;5.78;;
55025;SDS011;40925;45.666;18.994;2023-11-18T14:58:47;13.27;;;6.38;;
55025;SDS011;40925;45.666;18.994;2023-11-18T15:01:14;14.82;;;5.63;;
55025;SDS011;40925;45.666;18.994;2023-11-18T15:03:41;8.63;;;3.63;;
55025;SDS011;40925;45.666;18.994;2023-11-18T15:06:06;7.85;;;4.28;;
55025;SDS011;40925;45.666;18.994;2023-11-18T15:08:35;9.80;;;4.68;;
55025;SDS011;40925;45.666;18.994;2023-11-18T15:11:06;5.28;;;2.90;;
55025;SDS011;40925;45.666;18.994;2023-11-18T15:13:32;11.05;;;5.47;;